Time;durP1;ratioP1;P1;durP2;ratioP2;P2;SDS_P1;SDS_P2;PMS_P1;PMS_P2;Temp;Humidity;BMP_temperature;BMP_pressure;BME280_temperature;BME280_humidity;BME280_pressure;Samples;Min_cycle;Max_cycle;Signal;HPM_P1;HPM_P2
2023/06/09 00:01:48;;;;;;;1.52;1.38;;;25.30;58.20;;;;;;6338283;28;20039;-53
2023/06/09 00:04:50;;;;;;;1.40;1.30;;;25.20;56.10;;;;;;6339456;28;20039;-54
2023/06/09 00:07:53;;;;;;;1.50;1.25;;;25.50;56.10;;;;;;6337471;28;20457;-50
2023/06/09 00:10:57;;;;;;;1.52;1.20;;;25.10;55.80;;;;;;6333551;28;20050;-54
2023/06/09 00:14:00;;;;;;;1.67;1.20;;;25.50;54.40;;;;;;6334284;28;20694;-53
2023/06/09 00:17:02;;;;;;;1.20;1.10;;;25.00;55.30;;;;;;6342287;28;20035;-53
2023/06/09 00:20:08;;;;;;;1.73;1.10;;;25.10;55.20;;;;;;6342864;28;20063;-53
2023/06/09 00:23:10;;;;;;;1.30;1.20;;;25.30;55.10;;;;;;6340127;28;20039;-52
2023/06/09 00:26:11;;;;;;;1.73;1.40;;;25.40;55.00;;;;;;6343749;28;20032;-52
2023/06/09 00:29:16;;;;;;;1.15;1.05;;;25.40;54.90;;;;;;6343667;28;20149;-54
2023/06/09 00:32:17;;;;;;;1.52;1.42;;;25.40;54.70;;;;;;6342520;28;20036;-53
2023/06/09 00:35:20;;;;;;;1.48;1.38;;;25.50;54.80;;;;;;6340716;28;20055;-51
2023/06/09 00:38:21;;;;;;;1.50;1.30;;;25.30;54.40;;;;;;6343208;28;20487;-53
2023/06/09 00:41:25;;;;;;;1.33;1.23;;;25.40;54.50;;;;;;6342734;28;20043;-50
2023/06/09 00:44:27;;;;;;;1.10;1.00;;;25.30;54.00;;;;;;6342529;28;20035;-52
2023/06/09 00:47:28;;;;;;;1.48;1.25;;;25.10;54.10;;;;;;6340518;28;20044;-54
2023/06/09 00:50:33;;;;;;;1.80;1.40;;;25.30;54.20;;;;;;6342823;28;20031;-52
2023/06/09 00:53:36;;;;;;;1.75;1.50;;;25.50;54.20;;;;;;6342428;28;20035;-53
2023/06/09 00:56:39;;;;;;;1.30;1.20;;;25.50;54.00;;;;;;6342909;28;20032;-54
2023/06/09 00:59:40;;;;;;;1.40;1.30;;;25.50;53.90;;;;;;6342879;28;20028;-54
2023/06/09 01:02:42;;;;;;;1.50;1.40;;;25.20;53.70;;;;;;6341682;28;20047;-52
2023/06/09 01:05:44;;;;;;;1.98;1.75;;;25.40;53.70;;;;;;6342294;28;20063;-51
2023/06/09 01:08:52;;;;;;;2.30;1.25;;;25.40;53.60;;;;;;6341710;28;20066;-47
2023/06/09 01:12:02;;;;;;;1.70;1.45;;;25.40;53.40;;;;;;6341238;28;20046;-47
2023/06/09 01:15:11;;;;;;;1.63;1.30;;;25.40;53.30;;;;;;6341985;28;20418;-48
2023/06/09 01:18:15;;;;;;;1.40;1.25;;;25.10;53.00;;;;;;6321614;28;20107;-46
2023/06/09 01:21:32;;;;;;;1.40;1.30;;;25.50;53.20;;;;;;6360441;22;20047;-50
2023/06/09 01:24:47;;;;;;;1.20;1.10;;;25.40;53.10;;;;;;6312905;28;20089;-49
2023/06/09 01:27:52;;;;;;;1.75;1.42;;;25.50;53.00;;;;;;6312166;28;20052;-47
2023/06/09 01:30:56;;;;;;;1.48;1.30;;;25.40;52.90;;;;;;6329259;28;20505;-49
2023/06/09 01:33:59;;;;;;;1.40;1.30;;;25.30;52.70;;;;;;6308903;28;20085;-48
2023/06/09 01:37:02;;;;;;;1.35;1.10;;;25.40;52.80;;;;;;6324309;28;20041;-47
2023/06/09 01:40:07;;;;;;;1.20;1.10;;;25.40;52.60;;;;;;6325635;28;20036;-49
2023/06/09 01:43:12;;;;;;;1.33;1.23;;;25.40;52.60;;;;;;6327140;28;20052;-43
2023/06/09 01:46:16;;;;;;;1.17;1.08;;;25.30;52.70;;;;;;6327916;28;20036;-47
2023/06/09 01:49:24;;;;;;;1.20;1.02;;;25.40;52.60;;;;;;6327994;28;20089;-44
2023/06/09 01:52:34;;;;;;;1.23;1.13;;;25.30;52.40;;;;;;6328706;28;20070;-47
2023/06/09 01:55:40;;;;;;;1.30;1.10;;;24.90;52.00;;;;;;6328303;28;20042;-42
2023/06/09 01:58:46;;;;;;;1.50;1.30;;;25.30;52.30;;;;;;6328927;28;20039;-44
2023/06/09 02:01:53;;;;;;;1.40;1.30;;;25.30;52.20;;;;;;6305409;28;20036;-44
2023/06/09 02:04:56;;;;;;;1.23;1.13;;;25.40;52.20;;;;;;6321493;28;20042;-46
2023/06/09 02:07:58;;;;;;;1.13;1.02;;;25.30;52.20;;;;;;6320661;28;20101;-45
2023/06/09 02:11:00;;;;;;;1.02;0.93;;;25.30;52.10;;;;;;6319530;28;20357;-46
2023/06/09 02:14:02;;;;;;;1.50;1.35;;;25.70;52.60;;;;;;6321684;28;20040;-48
2023/06/09 02:17:04;;;;;;;1.48;1.10;;;25.30;52.10;;;;;;6321197;28;20040;-48
2023/06/09 02:20:08;;;;;;;1.30;1.00;;;25.30;52.20;;;;;;6321015;28;20039;-46
2023/06/09 02:23:10;;;;;;;1.20;1.10;;;25.30;51.80;;;;;;6317956;28;20040;-43
2023/06/09 02:26:13;;;;;;;1.25;1.15;;;25.30;52.20;;;;;;6301002;28;20522;-46
2023/06/09 02:29:16;;;;;;;1.30;1.20;;;24.80;51.50;;;;;;6321420;28;20036;-45
2023/06/09 02:32:17;;;;;;;1.23;1.10;;;25.50;52.00;;;;;;6320004;28;20065;-45
2023/06/09 02:35:19;;;;;;;1.30;0.98;;;25.30;51.80;;;;;;6319804;28;20109;-44
2023/06/09 02:38:21;;;;;;;1.60;1.00;;;25.10;51.70;;;;;;6321763;28;20036;-42
2023/06/09 02:41:24;;;;;;;2.35;1.45;;;25.30;51.60;;;;;;6321073;28;20040;-48
2023/06/09 02:44:28;;;;;;;1.42;1.33;;;25.40;51.80;;;;;;6320693;28;20032;-48
2023/06/09 02:47:30;;;;;;;1.10;1.00;;;25.30;51.20;;;;;;6320183;28;20094;-43
2023/06/09 02:50:33;;;;;;;1.38;1.10;;;25.40;51.60;;;;;;6320606;28;20404;-49
2023/06/09 02:53:37;;;;;;;1.25;1.15;;;25.40;51.50;;;;;;6320206;28;20394;-47
2023/06/09 02:56:41;;;;;;;1.13;1.02;;;25.40;51.50;;;;;;6320381;28;20036;-47
2023/06/09 02:59:43;;;;;;;1.20;1.10;;;25.10;51.10;;;;;;6320798;28;20115;-43
2023/06/09 03:02:46;;;;;;;1.42;1.20;;;25.50;51.40;;;;;;6320397;28;20438;-46
2023/06/09 03:05:49;;;;;;;1.52;1.20;;;25.40;50.90;;;;;;6321217;28;20402;-48
2023/06/09 03:08:51;;;;;;;2.13;1.50;;;25.40;51.20;;;;;;6320665;28;20024;-46
2023/06/09 03:11:53;;;;;;;1.45;1.35;;;25.40;50.90;;;;;;6319773;28;20044;-42
2023/06/09 03:14:56;;;;;;;1.52;1.42;;;25.50;51.10;;;;;;6321019;28;20478;-46
2023/06/09 03:17:58;;;;;;;1.38;1.27;;;25.50;50.90;;;;;;6320627;28;20039;-45
2023/06/09 03:21:04;;;;;;;1.30;1.10;;;25.50;50.80;;;;;;6320360;28;20036;-48
2023/06/09 03:24:09;;;;;;;1.25;1.15;;;25.10;50.40;;;;;;6320394;28;20036;-47
2023/06/09 03:27:12;;;;;;;1.20;1.10;;;25.40;50.70;;;;;;6320428;28;20089;-49
2023/06/09 03:30:14;;;;;;;1.27;1.17;;;25.50;50.70;;;;;;6321629;28;20040;-47
2023/06/09 03:33:20;;;;;;;1.30;1.20;;;25.50;50.70;;;;;;6319995;28;20047;-45
2023/06/09 03:36:24;;;;;;;1.20;1.10;;;25.50;50.60;;;;;;6321395;28;20035;-47
2023/06/09 03:39:27;;;;;;;1.20;1.10;;;25.60;50.70;;;;;;6324991;28;20028;-44
2023/06/09 03:42:28;;;;;;;1.30;1.20;;;25.40;50.40;;;;;;6349150;28;20047;-48
2023/06/09 03:45:32;;;;;;;0.98;0.95;;;25.60;50.60;;;;;;6351820;28;20012;-47
2023/06/09 03:48:35;;;;;;;1.38;0.93;;;25.30;50.20;;;;;;6356075;28;20575;-42
2023/06/09 03:51:37;;;;;;;1.10;0.90;;;25.50;50.30;;;;;;6338730;28;20068;-42
2023/06/09 03:54:39;;;;;;;3.90;1.20;;;25.40;50.20;;;;;;6355155;28;20035;-49
2023/06/09 03:57:41;;;;;;;1.67;1.30;;;25.50;50.50;;;;;;6336064;28;20024;-44
2023/06/09 04:00:52;;;;;;;1.20;1.10;;;25.40;50.10;;;;;;6353560;28;20040;-44
2023/06/09 04:03:55;;;;;;;0.90;0.70;;;25.50;50.20;;;;;;6354947;28;20028;-43
2023/06/09 04:06:59;;;;;;;2.83;1.08;;;25.30;50.10;;;;;;6354386;28;20056;-43
2023/06/09 04:10:02;;;;;;;2.25;1.20;;;25.60;50.20;;;;;;6354276;28;20062;-43
2023/06/09 04:13:04;;;;;;;1.75;1.10;;;25.30;49.80;;;;;;6336647;28;20047;-43
2023/06/09 04:16:06;;;;;;;1.38;1.02;;;25.60;50.10;;;;;;6354310;28;20040;-45
2023/06/09 04:19:08;;;;;;;1.25;1.02;;;25.90;50.10;;;;;;6356721;28;20050;-44
2023/06/09 04:22:11;;;;;;;1.40;1.15;;;25.60;49.80;;;;;;6353713;28;20110;-45
2023/06/09 04:25:13;;;;;;;1.05;0.95;;;25.50;49.70;;;;;;6354128;28;20040;-42
2023/06/09 04:28:17;;;;;;;1.15;1.00;;;25.60;49.70;;;;;;6355262;28;20047;-43
2023/06/09 04:31:23;;;;;;;1.60;1.13;;;25.60;49.60;;;;;;6354692;28;20044;-43
2023/06/09 04:34:26;;;;;;;1.00;0.90;;;25.50;49.40;;;;;;6354377;28;20058;-43
2023/06/09 04:37:30;;;;;;;1.17;0.93;;;25.40;49.30;;;;;;6354122;28;20052;-43
2023/06/09 04:40:37;;;;;;;1.05;0.95;;;25.60;49.60;;;;;;6337439;28;20056;-44
2023/06/09 04:43:41;;;;;;;1.10;1.00;;;25.60;49.40;;;;;;6354542;28;20016;-46
2023/06/09 04:46:46;;;;;;;1.10;1.00;;;25.60;49.40;;;;;;6353941;28;20099;-43
2023/06/09 04:49:50;;;;;;;1.10;1.00;;;25.70;49.30;;;;;;6353858;28;20035;-45
2023/06/09 04:52:53;;;;;;;1.05;0.95;;;25.70;49.40;;;;;;6354079;28;20032;-44
2023/06/09 04:55:55;;;;;;;0.93;0.90;;;25.60;49.30;;;;;;6354011;28;20047;-42
2023/06/09 04:59:00;;;;;;;1.10;1.00;;;25.70;49.30;;;;;;6352632;28;20032;-46
2023/06/09 05:02:03;;;;;;;1.10;1.00;;;25.70;49.10;;;;;;6351594;28;20044;-43
2023/06/09 05:05:05;;;;;;;1.08;0.90;;;25.70;49.10;;;;;;6353151;28;20040;-47
2023/06/09 05:08:07;;;;;;;1.10;1.00;;;25.50;49.00;;;;;;6336072;28;20074;-42
2023/06/09 05:11:08;;;;;;;1.73;1.17;;;25.60;49.20;;;;;;6353965;28;20040;-47
2023/06/09 05:14:10;;;;;;;1.10;1.00;;;25.70;49.30;;;;;;6354044;28;20040;-44
2023/06/09 05:17:16;;;;;;;0.85;0.85;;;25.70;49.40;;;;;;6335703;28;20024;-48
2023/06/09 05:20:17;;;;;;;1.00;0.90;;;25.60;49.30;;;;;;6353893;28;20032;-43
2023/06/09 05:23:19;;;;;;;0.85;0.80;;;25.60;49.40;;;;;;6354781;28;20045;-43
2023/06/09 05:26:22;;;;;;;1.20;1.00;;;25.50;49.40;;;;;;6354553;28;20024;-43
2023/06/09 05:29:26;;;;;;;1.15;1.05;;;25.60;49.50;;;;;;6353831;28;20077;-43
2023/06/09 05:32:28;;;;;;;1.20;1.10;;;25.60;49.50;;;;;;6351177;28;20032;-42
2023/06/09 05:35:30;;;;;;;0.90;0.90;;;25.60;49.70;;;;;;6354805;28;20024;-43
2023/06/09 05:38:31;;;;;;;1.00;0.90;;;25.50;49.70;;;;;;6354718;28;20050;-42
2023/06/09 05:41:33;;;;;;;1.00;0.90;;;25.50;49.80;;;;;;6332273;28;20095;-43
2023/06/09 05:44:34;;;;;;;1.20;1.10;;;25.50;49.90;;;;;;6355302;28;20035;-43
2023/06/09 05:47:36;;;;;;;0.82;0.75;;;25.60;50.20;;;;;;6352556;28;20024;-43
2023/06/09 05:50:43;;;;;;;1.00;0.90;;;25.50;50.10;;;;;;6354047;28;20079;-45
2023/06/09 05:53:46;;;;;;;1.10;1.00;;;25.50;49.50;;;;;;6354137;28;20047;-43
2023/06/09 05:56:48;;;;;;;1.08;0.98;;;25.60;50.40;;;;;;6353828;28;20043;-43
2023/06/09 05:59:50;;;;;;;1.00;0.95;;;25.50;50.50;;;;;;6350807;28;20091;-44
2023/06/09 06:02:53;;;;;;;1.27;1.17;;;25.60;50.80;;;;;;6348424;28;20032;-45
2023/06/09 06:05:58;;;;;;;1.00;0.90;;;25.50;50.90;;;;;;6347961;28;20044;-45
2023/06/09 06:08:59;;;;;;;1.00;0.90;;;25.40;51.00;;;;;;6348665;28;20040;-45
2023/06/09 06:12:01;;;;;;;1.13;1.02;;;25.60;51.70;;;;;;6349793;28;20050;-43
2023/06/09 06:15:03;;;;;;;1.10;1.00;;;25.60;51.10;;;;;;6347482;28;20036;-45
2023/06/09 06:18:05;;;;;;;1.30;1.02;;;25.60;51.30;;;;;;6349917;28;20028;-48
2023/06/09 06:21:07;;;;;;;1.70;1.40;;;25.50;51.40;;;;;;6351355;28;20036;-46
2023/06/09 06:24:08;;;;;;;4.72;2.50;;;25.50;51.80;;;;;;6339642;28;20032;-47
2023/06/09 06:27:11;;;;;;;3.45;1.90;;;25.60;52.10;;;;;;6346528;28;20047;-44
2023/06/09 06:30:13;;;;;;;2.53;2.30;;;25.50;52.40;;;;;;6347860;28;20066;-43
2023/06/09 06:33:16;;;;;;;2.90;2.55;;;25.50;52.50;;;;;;6341706;28;20043;-45
2023/06/09 06:36:21;;;;;;;5.10;3.67;;;25.70;53.00;;;;;;6347188;28;20024;-43
2023/06/09 06:39:23;;;;;;;4.97;3.38;;;25.50;53.10;;;;;;6314957;28;20085;-47
2023/06/09 06:42:30;;;;;;;5.60;3.80;;;25.60;53.70;;;;;;6345657;28;20038;-44
2023/06/09 06:45:47;;;;;;;3.33;3.00;;;25.70;53.50;;;;;;6352199;28;20309;-47
2023/06/09 06:48:50;;;;;;;4.10;3.15;;;25.30;54.40;;;;;;6329597;28;20063;-48
2023/06/09 06:51:51;;;;;;;5.38;4.60;;;25.50;54.50;;;;;;6340323;28;20118;-45
2023/06/09 06:54:53;;;;;;;5.60;4.55;;;25.60;55.20;;;;;;6319115;28;20466;-48
2023/06/09 06:57:54;;;;;;;5.43;4.20;;;25.50;55.10;;;;;;6323973;28;20158;-48
2023/06/09 07:00:56;;;;;;;7.13;3.72;;;25.50;55.40;;;;;;6328842;28;20032;-43
2023/06/09 07:03:58;;;;;;;4.35;2.90;;;25.50;55.20;;;;;;6334341;28;20149;-44
2023/06/09 07:07:00;;;;;;;4.72;4.25;;;25.70;55.40;;;;;;6292320;28;20028;-51
2023/06/09 07:10:02;;;;;;;4.35;3.50;;;26.30;56.00;;;;;;6283755;28;20663;-53
2023/06/09 07:13:03;;;;;;;4.60;3.72;;;25.40;55.60;;;;;;6265702;28;20490;-54
2023/06/09 07:16:05;;;;;;;5.40;3.47;;;25.40;55.70;;;;;;6256687;28;20667;-53
2023/06/09 07:19:09;;;;;;;4.85;4.10;;;25.50;56.40;;;;;;6278082;28;20047;-51
2023/06/09 07:22:11;;;;;;;6.18;4.65;;;25.30;56.10;;;;;;6290378;28;20559;-53
2023/06/09 07:25:13;;;;;;;5.63;5.03;;;25.50;56.60;;;;;;6277317;28;20032;-54
2023/06/09 07:28:19;;;;;;;5.80;4.22;;;25.40;56.60;;;;;;6257713;28;20597;-53
2023/06/09 07:31:22;;;;;;;5.43;3.60;;;25.10;64.40;;;;;;6265513;28;20084;-53
2023/06/09 07:34:27;;;;;;;7.28;3.42;;;25.50;57.90;;;;;;6235699;28;20854;-48
2023/06/09 07:37:28;;;;;;;4.57;3.42;;;24.90;56.00;;;;;;6226008;28;20075;-50
2023/06/09 07:40:30;;;;;;;4.38;3.38;;;25.10;56.30;;;;;;6228996;28;20036;-50
2023/06/09 07:43:31;;;;;;;3.33;2.83;;;25.60;56.80;;;;;;6212177;28;20037;-52
2023/06/09 07:46:34;;;;;;;2.35;2.15;;;25.30;56.40;;;;;;6236276;28;20041;-49
2023/06/09 07:49:37;;;;;;;3.33;2.70;;;25.50;56.20;;;;;;6234764;28;20059;-52
2023/06/09 07:52:38;;;;;;;3.28;2.72;;;25.50;56.10;;;;;;6233110;28;20483;-53
2023/06/09 07:55:40;;;;;;;3.13;2.50;;;25.50;56.10;;;;;;6236075;28;20063;-52
2023/06/09 07:58:41;;;;;;;2.80;2.50;;;25.50;56.10;;;;;;6239498;28;20037;-52
2023/06/09 08:01:44;;;;;;;5.22;2.90;;;25.40;56.00;;;;;;6232321;28;20057;-53
2023/06/09 08:04:48;;;;;;;4.32;3.28;;;25.20;56.20;;;;;;6234075;28;20061;-50
2023/06/09 08:07:53;;;;;;;4.95;3.05;;;25.30;56.20;;;;;;6231611;28;20033;-49
2023/06/09 08:10:55;;;;;;;3.40;3.10;;;25.50;56.50;;;;;;6233239;28;20045;-54
2023/06/09 08:14:02;;;;;;;5.65;3.85;;;25.50;56.70;;;;;;6230263;28;20041;-55
2023/06/09 08:17:04;;;;;;;5.03;4.10;;;25.50;56.60;;;;;;6235483;28;20083;-53
2023/06/09 08:20:07;;;;;;;7.35;3.17;;;25.30;56.70;;;;;;6238264;28;20037;-52
2023/06/09 08:23:10;;;;;;;4.55;3.50;;;25.50;57.50;;;;;;6235366;28;20048;-45
2023/06/09 08:26:11;;;;;;;4.43;3.25;;;25.30;57.10;;;;;;6237225;28;20040;-46
2023/06/09 08:29:13;;;;;;;5.47;3.90;;;25.60;57.80;;;;;;6246584;28;20037;-48
2023/06/09 08:32:15;;;;;;;6.93;4.55;;;25.50;57.90;;;;;;6242500;28;20041;-48
2023/06/09 08:35:17;;;;;;;4.53;3.63;;;25.40;58.10;;;;;;6267696;28;20557;-53
2023/06/09 08:38:22;;;;;;;5.07;4.10;;;25.70;59.00;;;;;;6279848;28;20080;-50
2023/06/09 08:41:27;;;;;;;5.15;3.00;;;25.40;59.00;;;;;;6245573;28;20048;-54
2023/06/09 08:44:30;;;;;;;7.88;4.85;;;25.40;59.40;;;;;;6268909;28;20120;-47
2023/06/09 08:47:33;;;;;;;5.78;3.80;;;25.50;59.50;;;;;;6286936;28;20088;-46
2023/06/09 08:50:41;;;;;;;4.85;4.13;;;25.50;59.70;;;;;;6283596;28;20494;-46
2023/06/09 08:53:45;;;;;;;3.75;2.90;;;25.70;60.00;;;;;;6263738;28;20029;-46
2023/06/09 08:56:47;;;;;;;6.43;3.35;;;25.70;59.80;;;;;;6279545;28;20029;-43
2023/06/09 08:59:50;;;;;;;5.45;3.22;;;26.10;60.30;;;;;;6297378;28;20031;-47
2023/06/09 09:02:52;;;;;;;3.08;2.70;;;24.90;59.40;;;;;;6504383;22;20037;-45
2023/06/09 09:05:58;;;;;;;4.97;3.80;;;25.40;59.70;;;;;;6295024;28;20037;-45
2023/06/09 09:08:59;;;;;;;3.45;3.10;;;25.50;59.70;;;;;;6307706;28;20033;-45
2023/06/09 09:12:02;;;;;;;3.22;2.42;;;25.70;60.00;;;;;;6254887;28;20047;-45
2023/06/09 09:15:06;;;;;;;2.40;2.20;;;25.50;59.70;;;;;;6229849;28;20112;-42
2023/06/09 09:18:11;;;;;;;2.92;1.92;;;25.50;59.60;;;;;;6255593;28;20040;-48
2023/06/09 09:21:22;;;;;;;2.75;2.17;;;25.50;59.80;;;;;;6233545;28;20021;-45
2023/06/09 09:24:29;;;;;;;2.90;2.60;;;25.40;59.50;;;;;;6290630;28;20075;-45
2023/06/09 09:27:31;;;;;;;4.07;2.20;;;25.70;59.70;;;;;;6290078;28;20052;-46
2023/06/09 09:30:48;;;;;;;2.50;2.00;;;25.70;59.60;;;;;;6267128;28;20230;-43
2023/06/09 09:33:50;;;;;;;2.50;2.30;;;25.40;59.50;;;;;;6264764;28;20626;-47
2023/06/09 09:36:54;;;;;;;2.10;1.90;;;25.70;59.80;;;;;;6249401;28;20036;-46
2023/06/09 09:39:57;;;;;;;2.72;1.90;;;25.10;59.20;;;;;;6243702;28;20044;-47
2023/06/09 09:43:01;;;;;;;2.38;2.10;;;25.70;58.80;;;;;;6269040;28;20036;-46
2023/06/09 09:46:06;;;;;;;2.30;2.10;;;25.20;59.10;;;;;;6268571;28;20036;-48
2023/06/09 09:49:22;;;;;;;2.97;2.33;;;25.80;59.50;;;;;;6252103;28;20120;-47
2023/06/09 09:52:26;;;;;;;2.22;1.90;;;25.70;59.70;;;;;;6254603;28;20468;-45
2023/06/09 09:55:28;;;;;;;2.47;2.28;;;25.60;59.20;;;;;;6251152;28;20045;-47
2023/06/09 09:58:33;;;;;;;2.25;2.03;;;26.10;59.60;;;;;;6254536;28;20037;-47
2023/06/09 10:01:38;;;;;;;2.45;2.10;;;25.50;59.30;;;;;;6256533;28;20052;-48
2023/06/09 10:04:40;;;;;;;3.38;3.08;;;25.80;59.30;;;;;;6256769;28;20053;-44
2023/06/09 10:07:48;;;;;;;3.85;2.50;;;25.80;59.10;;;;;;6251276;28;20037;-46
2023/06/09 10:10:51;;;;;;;2.45;2.25;;;25.50;59.00;;;;;;6255391;28;20040;-43
2023/06/09 10:13:53;;;;;;;5.20;2.35;;;25.90;59.00;;;;;;6252492;28;20060;-45
2023/06/09 10:16:55;;;;;;;2.50;2.30;;;26.00;59.10;;;;;;6266788;28;20206;-44
2023/06/09 10:19:57;;;;;;;4.07;2.47;;;24.90;58.30;;;;;;6271576;28;20206;-46
2023/06/09 10:22:59;;;;;;;2.55;2.35;;;25.90;59.00;;;;;;6274889;28;20053;-45
2023/06/09 10:26:02;;;;;;;2.30;2.10;;;25.60;58.70;;;;;;6295948;28;20025;-43
2023/06/09 10:29:06;;;;;;;3.03;2.22;;;25.70;58.60;;;;;;6290476;28;20037;-43
2023/06/09 10:32:10;;;;;;;2.70;2.50;;;25.10;58.20;;;;;;6267868;28;20055;-43
2023/06/09 10:35:13;;;;;;;4.68;2.83;;;25.80;58.50;;;;;;6283053;28;20033;-41
2023/06/09 10:38:25;;;;;;;2.72;2.50;;;25.70;58.40;;;;;;6284660;28;20245;-42
2023/06/09 10:41:37;;;;;;;3.35;2.75;;;25.70;58.40;;;;;;6268989;28;20162;-42
2023/06/09 10:44:45;;;;;;;2.67;2.47;;;25.70;58.20;;;;;;6292017;28;20041;-41
2023/06/09 10:47:48;;;;;;;3.33;2.67;;;25.80;58.20;;;;;;6268263;28;20036;-46
2023/06/09 10:50:50;;;;;;;4.20;3.50;;;25.80;58.10;;;;;;6287111;28;20036;-41
2023/06/09 10:54:22;;;;;;;2.88;2.53;;;25.70;58.10;;;;;;6288035;28;20044;-42
2023/06/09 10:57:41;;;;;;;3.78;3.42;;;25.70;57.90;;;;;;6290779;28;20036;-41
2023/06/09 11:01:06;;;;;;;5.43;3.72;;;25.80;57.90;;;;;;6287002;28;20047;-43
2023/06/09 11:04:37;;;;;;;4.85;3.85;;;25.80;58.10;;;;;;6282722;28;20040;-44
2023/06/09 11:07:45;;;;;;;4.75;4.32;;;25.90;57.70;;;;;;6278982;28;20067;-45
2023/06/09 11:10:47;;;;;;;4.38;3.65;;;25.70;57.30;;;;;;6288934;28;20048;-42
2023/06/09 11:13:49;;;;;;;3.92;3.63;;;25.90;57.50;;;;;;6293421;28;20039;-42
2023/06/09 11:17:14;;;;;;;4.05;3.05;;;26.30;57.70;;;;;;6289001;28;20043;-40
2023/06/09 11:20:18;;;;;;;4.15;3.75;;;25.90;57.30;;;;;;6288036;28;20176;-41
2023/06/09 11:23:21;;;;;;;4.43;3.47;;;25.80;57.30;;;;;;6290170;28;20040;-41
2023/06/09 11:26:23;;;;;;;4.10;3.50;;;25.70;57.90;;;;;;6288825;28;20112;-43
2023/06/09 11:29:25;;;;;;;3.45;3.15;;;25.80;57.30;;;;;;6291700;28;20044;-45
2023/06/09 11:32:45;;;;;;;3.30;3.00;;;26.00;57.60;;;;;;6286615;28;20369;-42
2023/06/09 11:35:47;;;;;;;3.47;3.10;;;25.90;57.60;;;;;;6272360;28;20040;-41
2023/06/09 11:38:49;;;;;;;2.90;2.70;;;25.90;57.90;;;;;;6271687;28;20037;-41
2023/06/09 11:41:56;;;;;;;3.33;3.00;;;25.90;57.90;;;;;;6274709;28;20037;-41
2023/06/09 11:45:01;;;;;;;2.83;2.63;;;26.00;58.10;;;;;;6280245;28;20037;-45
2023/06/09 11:48:08;;;;;;;4.40;3.60;;;25.90;58.10;;;;;;6275549;28;20045;-41
2023/06/09 11:51:10;;;;;;;3.28;2.88;;;25.90;58.20;;;;;;6275357;28;20033;-41
2023/06/09 11:54:11;;;;;;;3.60;2.92;;;25.90;58.90;;;;;;6263359;28;20044;-40
2023/06/09 11:57:17;;;;;;;2.53;2.33;;;26.00;58.60;;;;;;6264828;28;20240;-41
2023/06/09 12:00:20;;;;;;;2.65;2.42;;;26.00;58.60;;;;;;6261588;28;20029;-43
2023/06/09 12:03:26;;;;;;;2.92;2.60;;;25.90;58.50;;;;;;6226196;28;20041;-44
2023/06/09 12:06:31;;;;;;;3.47;2.30;;;25.90;58.60;;;;;;6247443;28;20037;-45
2023/06/09 12:09:32;;;;;;;3.10;2.80;;;25.90;59.20;;;;;;6264755;28;20051;-44
2023/06/09 12:12:42;;;;;;;3.50;2.92;;;26.00;58.90;;;;;;6267100;28;20037;-46
2023/06/09 12:15:52;;;;;;;3.22;2.90;;;26.10;59.10;;;;;;6243621;28;20040;-43
2023/06/09 12:18:54;;;;;;;3.30;2.95;;;26.00;59.10;;;;;;6270638;28;20025;-43
2023/06/09 12:21:56;;;;;;;4.00;3.22;;;26.00;59.30;;;;;;6256480;28;20037;-46
2023/06/09 12:24:57;;;;;;;3.38;3.08;;;26.00;59.10;;;;;;6251321;28;20092;-42
2023/06/09 12:28:15;;;;;;;3.55;3.25;;;26.10;59.40;;;;;;6279447;28;20111;-44
2023/06/09 12:31:18;;;;;;;3.30;2.97;;;26.10;59.30;;;;;;6270439;28;20037;-43
2023/06/09 12:34:23;;;;;;;3.75;3.45;;;26.10;59.20;;;;;;6282187;28;20048;-46
2023/06/09 12:37:28;;;;;;;3.95;3.50;;;26.10;59.10;;;;;;6284444;28;20040;-43
2023/06/09 12:40:42;;;;;;;4.30;3.20;;;26.10;59.20;;;;;;6271486;28;20041;-46
2023/06/09 12:43:45;;;;;;;3.58;3.25;;;26.10;59.20;;;;;;6266034;28;20037;-45
2023/06/09 12:46:54;;;;;;;3.42;3.13;;;26.30;59.20;;;;;;6276361;28;20750;-44
2023/06/09 12:49:59;;;;;;;3.75;3.35;;;26.20;59.10;;;;;;6284587;28;20048;-41
2023/06/09 12:53:01;;;;;;;3.90;3.28;;;26.40;59.40;;;;;;6273168;28;20041;-39
2023/06/09 12:56:02;;;;;;;3.28;2.97;;;26.10;58.90;;;;;;6272741;28;20045;-41
2023/06/09 12:59:08;;;;;;;3.55;3.25;;;26.30;59.00;;;;;;6274074;28;20040;-41
2023/06/09 13:02:10;;;;;;;4.07;2.75;;;26.40;58.90;;;;;;6284849;28;20029;-41
2023/06/09 13:05:15;;;;;;;3.42;3.13;;;26.40;59.00;;;;;;6288495;28;20033;-41
2023/06/09 13:08:18;;;;;;;4.00;3.15;;;26.40;59.00;;;;;;6294598;28;20049;-47
2023/06/09 13:11:19;;;;;;;3.50;2.80;;;26.30;58.80;;;;;;6257839;28;20794;-45
2023/06/09 13:14:21;;;;;;;3.10;2.75;;;26.20;58.90;;;;;;6250644;28;20681;-47
2023/06/09 13:17:23;;;;;;;4.05;3.08;;;26.50;59.30;;;;;;6256323;28;20041;-47
2023/06/09 13:20:24;;;;;;;3.75;3.35;;;26.30;59.20;;;;;;6260634;28;20103;-44
2023/06/09 13:23:26;;;;;;;3.17;2.88;;;26.40;59.30;;;;;;6270079;28;20045;-46
2023/06/09 13:26:27;;;;;;;3.55;2.90;;;26.30;59.20;;;;;;6284165;28;20112;-45
2023/06/09 13:29:29;;;;;;;2.80;2.45;;;26.40;59.30;;;;;;6282092;28;20033;-42
2023/06/09 13:32:33;;;;;;;3.03;2.35;;;26.40;59.50;;;;;;6282322;28;20132;-43
2023/06/09 13:35:34;;;;;;;2.70;2.50;;;26.50;59.50;;;;;;6275975;28;20096;-46
2023/06/09 13:38:37;;;;;;;4.35;2.10;;;26.30;59.40;;;;;;6279488;28;20083;-44
2023/06/09 13:41:39;;;;;;;2.47;2.22;;;26.50;59.70;;;;;;6268394;28;20029;-44
2023/06/09 13:44:41;;;;;;;2.13;1.77;;;26.30;59.90;;;;;;6269747;28;20037;-45
2023/06/09 13:47:44;;;;;;;3.53;2.13;;;26.40;60.10;;;;;;6281231;28;20048;-46
2023/06/09 13:50:51;;;;;;;2.10;1.50;;;26.40;60.00;;;;;;6267743;28;20523;-44
2023/06/09 13:53:55;;;;;;;1.83;1.73;;;26.40;60.20;;;;;;6265846;28;20049;-48
2023/06/09 13:56:57;;;;;;;2.53;1.60;;;26.40;60.40;;;;;;6272681;28;20126;-45
2023/06/09 13:59:58;;;;;;;2.33;1.42;;;26.50;60.60;;;;;;6269000;28;20064;-41
2023/06/09 14:03:01;;;;;;;2.45;1.52;;;26.30;60.50;;;;;;6278152;28;20102;-41
2023/06/09 14:06:03;;;;;;;2.53;1.48;;;26.30;60.70;;;;;;6266126;28;20303;-43
2023/06/09 14:09:12;;;;;;;1.85;1.73;;;26.40;60.90;;;;;;6268970;28;20037;-45
2023/06/09 14:12:13;;;;;;;2.35;1.65;;;26.40;61.30;;;;;;6263180;28;20087;-47
2023/06/09 14:15:16;;;;;;;1.48;1.10;;;26.40;61.20;;;;;;6269492;28;20048;-43
2023/06/09 14:18:29;;;;;;;1.30;1.00;;;26.30;61.30;;;;;;6274651;28;20629;-42
2023/06/09 14:21:31;;;;;;;1.85;1.70;;;26.30;61.70;;;;;;6276793;28;20051;-42
2023/06/09 14:24:33;;;;;;;2.00;1.80;;;26.40;62.10;;;;;;6270994;28;20045;-44
2023/06/09 14:27:35;;;;;;;1.63;1.33;;;26.30;62.20;;;;;;6262489;28;20665;-41
2023/06/09 14:30:36;;;;;;;1.73;1.33;;;26.50;62.80;;;;;;6263736;28;20040;-41
2023/06/09 14:33:38;;;;;;;1.52;1.38;;;26.20;62.90;;;;;;6265721;28;20037;-47
2023/06/09 14:36:40;;;;;;;1.40;1.20;;;26.20;63.00;;;;;;6281613;28;20582;-45
2023/06/09 14:39:42;;;;;;;1.50;1.13;;;26.20;63.00;;;;;;6269252;28;20041;-44
2023/06/09 14:42:49;;;;;;;1.60;1.42;;;26.00;62.90;;;;;;6269435;28;20142;-44
2023/06/09 14:45:50;;;;;;;1.73;1.63;;;25.90;62.70;;;;;;6264992;28;20029;-44
2023/06/09 14:48:54;;;;;;;1.90;1.30;;;26.10;63.00;;;;;;6278831;28;20045;-45
2023/06/09 14:51:55;;;;;;;2.20;1.20;;;26.10;63.20;;;;;;6285916;28;20049;-43
2023/06/09 14:54:57;;;;;;;1.20;1.10;;;26.00;63.20;;;;;;6284055;28;20254;-42
2023/06/09 14:58:00;;;;;;;2.55;1.30;;;26.00;63.40;;;;;;6274105;28;20045;-45
2023/06/09 15:01:06;;;;;;;1.15;0.80;;;26.00;63.30;;;;;;6277210;28;20044;-43
2023/06/09 15:04:08;;;;;;;1.38;1.02;;;26.00;63.90;;;;;;6250835;28;20049;-49
2023/06/09 15:07:12;;;;;;;1.00;0.90;;;25.90;63.90;;;;;;6254120;28;20504;-47
2023/06/09 15:10:13;;;;;;;1.42;1.10;;;25.90;64.20;;;;;;6250090;28;20033;-49
2023/06/09 15:13:16;;;;;;;2.00;1.08;;;25.80;64.10;;;;;;6251566;28;20772;-48
2023/06/09 15:16:19;;;;;;;0.63;0.63;;;26.00;64.90;;;;;;6248780;28;20391;-48
2023/06/09 15:19:21;;;;;;;2.08;1.55;;;25.70;64.90;;;;;;6254213;28;20029;-45
2023/06/09 15:22:23;;;;;;;5.07;1.60;;;25.70;65.20;;;;;;6253757;28;20531;-45
2023/06/09 15:25:28;;;;;;;2.45;1.73;;;25.60;65.50;;;;;;6257374;28;20446;-47
2023/06/09 15:28:30;;;;;;;2.15;1.17;;;25.70;66.00;;;;;;6258214;28;20045;-44
2023/06/09 15:31:31;;;;;;;2.60;1.80;;;25.70;66.10;;;;;;6251547;28;20037;-49
2023/06/09 15:34:33;;;;;;;3.10;2.08;;;25.70;66.20;;;;;;6252534;28;20033;-45
2023/06/09 15:37:35;;;;;;;5.95;2.72;;;25.70;66.50;;;;;;6255961;28;20040;-48
2023/06/09 15:40:45;;;;;;;2.60;1.75;;;25.50;66.40;;;;;;6248958;28;20053;-47
2023/06/09 15:43:47;;;;;;;2.47;1.77;;;25.70;65.60;;;;;;6260927;28;20041;-44
2023/06/09 15:46:49;;;;;;;1.95;1.58;;;25.60;66.70;;;;;;6264616;28;20033;-49
2023/06/09 15:49:51;;;;;;;2.03;1.10;;;25.60;66.90;;;;;;6259872;28;20037;-49
2023/06/09 15:52:52;;;;;;;2.30;1.10;;;25.60;67.30;;;;;;6270231;28;20037;-47
2023/06/09 15:55:55;;;;;;;1.75;1.42;;;25.10;66.60;;;;;;6265379;28;20033;-43
2023/06/09 15:58:57;;;;;;;2.65;1.38;;;25.60;67.10;;;;;;6264730;28;20169;-47